sensor_id;sensor_type;location;lat;lon;timestamp;P1;durP1;ratioP1;P2;durP2;ratioP2
5543;SDS011;2795;47.652;13.128;2022-09-09T00:04:49;15.40;;;3.00;;
5543;SDS011;2795;47.652;13.128;2022-09-09T00:15:20;6.50;;;2.30;;
5543;SDS011;2795;47.652;13.128;2022-09-09T00:17:55;10.10;;;2.70;;
5543;SDS011;2795;47.652;13.128;2022-09-09T00:23:12;13.47;;;2.63;;
5543;SDS011;2795;47.652;13.128;2022-09-09T00:26:02;11.47;;;2.70;;
5543;SDS011;2795;47.652;13.128;2022-09-09T00:28:33;12.50;;;2.80;;
5543;SDS011;2795;47.652;13.128;2022-09-09T00:31:13;12.97;;;3.10;;
5543;SDS011;2795;47.652;13.128;2022-09-09T00:33:42;7.00;;;2.33;;
5543;SDS011;2795;47.652;13.128;2022-09-09T00:36:13;10.90;;;2.90;;
5543;SDS011;2795;47.652;13.128;2022-09-09T00:38:44;6.27;;;2.10;;
5543;SDS011;2795;47.652;13.128;2022-09-09T00:43:46;7.50;;;2.40;;
5543;SDS011;2795;47.652;13.128;2022-09-09T00:49:55;10.10;;;2.63;;
5543;SDS011;2795;47.652;13.128;2022-09-09T00:52:39;9.03;;;2.40;;
5543;SDS011;2795;47.652;13.128;2022-09-09T00:58:11;19.00;;;3.60;;
5543;SDS011;2795;47.652;13.128;2022-09-09T01:00:41;10.83;;;3.10;;
5543;SDS011;2795;47.652;13.128;2022-09-09T01:03:19;7.53;;;2.40;;
5543;SDS011;2795;47.652;13.128;2022-09-09T01:08:39;6.80;;;2.53;;
5543;SDS011;2795;47.652;13.128;2022-09-09T01:11:11;9.23;;;2.93;;
5543;SDS011;2795;47.652;13.128;2022-09-09T01:13:45;8.27;;;2.77;;
5543;SDS011;2795;47.652;13.128;2022-09-09T01:16:16;6.33;;;2.40;;
5543;SDS011;2795;47.652;13.128;2022-09-09T01:18:44;15.77;;;3.70;;
5543;SDS011;2795;47.652;13.128;2022-09-09T01:24:15;15.50;;;3.80;;
5543;SDS011;2795;47.652;13.128;2022-09-09T01:26:49;5.20;;;2.30;;
5543;SDS011;2795;47.652;13.128;2022-09-09T01:29:18;5.40;;;2.37;;
5543;SDS011;2795;47.652;13.128;2022-09-09T01:31:56;16.07;;;3.20;;
5543;SDS011;2795;47.652;13.128;2022-09-09T01:34:29;7.80;;;2.47;;
5543;SDS011;2795;47.652;13.128;2022-09-09T01:37:02;9.50;;;2.97;;
5543;SDS011;2795;47.652;13.128;2022-09-09T01:39:33;6.10;;;2.77;;
5543;SDS011;2795;47.652;13.128;2022-09-09T01:42:01;7.43;;;2.67;;
5543;SDS011;2795;47.652;13.128;2022-09-09T01:44:29;8.73;;;3.10;;
5543;SDS011;2795;47.652;13.128;2022-09-09T01:46:56;11.77;;;2.87;;
5543;SDS011;2795;47.652;13.128;2022-09-09T01:49:23;8.10;;;3.23;;
5543;SDS011;2795;47.652;13.128;2022-09-09T01:51:51;9.20;;;2.80;;
5543;SDS011;2795;47.652;13.128;2022-09-09T01:54:23;11.73;;;2.90;;
5543;SDS011;2795;47.652;13.128;2022-09-09T02:05:35;11.73;;;3.27;;
5543;SDS011;2795;47.652;13.128;2022-09-09T02:08:07;11.87;;;2.90;;
5543;SDS011;2795;47.652;13.128;2022-09-09T02:13:15;8.40;;;2.40;;
5543;SDS011;2795;47.652;13.128;2022-09-09T02:15:57;12.43;;;2.60;;
5543;SDS011;2795;47.652;13.128;2022-09-09T02:18:53;11.10;;;2.93;;
5543;SDS011;2795;47.652;13.128;2022-09-09T02:21:27;7.80;;;2.70;;
5543;SDS011;2795;47.652;13.128;2022-09-09T02:23:55;7.00;;;2.40;;
5543;SDS011;2795;47.652;13.128;2022-09-09T02:26:25;9.77;;;2.30;;
5543;SDS011;2795;47.652;13.128;2022-09-09T02:28:52;9.47;;;2.50;;
5543;SDS011;2795;47.652;13.128;2022-09-09T02:31:21;5.50;;;2.17;;
5543;SDS011;2795;47.652;13.128;2022-09-09T02:33:53;8.90;;;2.77;;
5543;SDS011;2795;47.652;13.128;2022-09-09T02:36:23;4.70;;;1.97;;
5543;SDS011;2795;47.652;13.128;2022-09-09T02:38:51;9.93;;;2.97;;
5543;SDS011;2795;47.652;13.128;2022-09-09T02:41:20;8.20;;;2.80;;
5543;SDS011;2795;47.652;13.128;2022-09-09T02:43:51;8.07;;;2.20;;
5543;SDS011;2795;47.652;13.128;2022-09-09T02:52:18;8.10;;;2.40;;
5543;SDS011;2795;47.652;13.128;2022-09-09T02:54:45;8.17;;;2.30;;
5543;SDS011;2795;47.652;13.128;2022-09-09T02:57:22;11.30;;;2.77;;
5543;SDS011;2795;47.652;13.128;2022-09-09T02:59:50;9.80;;;2.67;;
5543;SDS011;2795;47.652;13.128;2022-09-09T03:02:18;11.60;;;3.03;;
5543;SDS011;2795;47.652;13.128;2022-09-09T03:04:45;8.30;;;2.63;;
5543;SDS011;2795;47.652;13.128;2022-09-09T03:07:17;11.03;;;3.10;;
5543;SDS011;2795;47.652;13.128;2022-09-09T03:09:44;13.37;;;3.13;;
5543;SDS011;2795;47.652;13.128;2022-09-09T03:12:11;8.10;;;2.47;;
5543;SDS011;2795;47.652;13.128;2022-09-09T03:14:38;8.70;;;2.67;;
5543;SDS011;2795;47.652;13.128;2022-09-09T03:17:05;9.30;;;2.40;;
5543;SDS011;2795;47.652;13.128;2022-09-09T03:19:32;6.47;;;2.50;;
5543;SDS011;2795;47.652;13.128;2022-09-09T03:21:58;6.63;;;2.43;;
5543;SDS011;2795;47.652;13.128;2022-09-09T03:24:26;7.17;;;2.23;;
5543;SDS011;2795;47.652;13.128;2022-09-09T03:26:52;6.90;;;2.07;;
5543;SDS011;2795;47.652;13.128;2022-09-09T03:29:19;11.23;;;2.87;;
5543;SDS011;2795;47.652;13.128;2022-09-09T03:31:45;8.60;;;2.70;;
5543;SDS011;2795;47.652;13.128;2022-09-09T03:34:12;8.93;;;2.40;;
5543;SDS011;2795;47.652;13.128;2022-09-09T03:36:39;19.00;;;3.53;;
5543;SDS011;2795;47.652;13.128;2022-09-09T03:39:07;14.30;;;3.20;;
5543;SDS011;2795;47.652;13.128;2022-09-09T03:41:33;10.03;;;3.00;;
5543;SDS011;2795;47.652;13.128;2022-09-09T03:44:00;15.00;;;2.80;;
5543;SDS011;2795;47.652;13.128;2022-09-09T03:46:27;11.37;;;2.87;;
5543;SDS011;2795;47.652;13.128;2022-09-09T03:48:53;7.83;;;2.87;;
5543;SDS011;2795;47.652;13.128;2022-09-09T03:51:20;8.57;;;2.67;;
5543;SDS011;2795;47.652;13.128;2022-09-09T03:53:48;15.73;;;3.20;;
5543;SDS011;2795;47.652;13.128;2022-09-09T03:56:15;12.93;;;3.00;;
5543;SDS011;2795;47.652;13.128;2022-09-09T03:58:41;8.37;;;2.37;;
5543;SDS011;2795;47.652;13.128;2022-09-09T04:01:09;8.50;;;2.57;;
5543;SDS011;2795;47.652;13.128;2022-09-09T04:03:40;18.87;;;3.60;;
5543;SDS011;2795;47.652;13.128;2022-09-09T04:06:07;17.23;;;3.13;;
5543;SDS011;2795;47.652;13.128;2022-09-09T04:08:36;4.07;;;2.03;;
5543;SDS011;2795;47.652;13.128;2022-09-09T04:11:04;11.00;;;2.87;;
5543;SDS011;2795;47.652;13.128;2022-09-09T04:13:33;5.93;;;2.40;;
5543;SDS011;2795;47.652;13.128;2022-09-09T04:16:01;8.03;;;2.70;;
5543;SDS011;2795;47.652;13.128;2022-09-09T04:18:29;6.03;;;2.27;;
5543;SDS011;2795;47.652;13.128;2022-09-09T04:20:57;4.87;;;2.03;;
5543;SDS011;2795;47.652;13.128;2022-09-09T04:23:24;7.80;;;2.70;;
5543;SDS011;2795;47.652;13.128;2022-09-09T04:25:52;8.27;;;2.67;;
5543;SDS011;2795;47.652;13.128;2022-09-09T04:28:20;6.43;;;2.33;;
5543;SDS011;2795;47.652;13.128;2022-09-09T04:30:48;15.97;;;3.40;;
5543;SDS011;2795;47.652;13.128;2022-09-09T04:33:15;9.37;;;2.70;;
5543;SDS011;2795;47.652;13.128;2022-09-09T04:35:44;6.43;;;2.10;;
5543;SDS011;2795;47.652;13.128;2022-09-09T04:38:11;14.60;;;3.40;;
5543;SDS011;2795;47.652;13.128;2022-09-09T04:40:38;12.30;;;3.23;;
5543;SDS011;2795;47.652;13.128;2022-09-09T04:43:09;9.80;;;3.27;;
5543;SDS011;2795;47.652;13.128;2022-09-09T04:45:39;8.77;;;2.30;;
5543;SDS011;2795;47.652;13.128;2022-09-09T04:48:07;17.03;;;2.87;;
5543;SDS011;2795;47.652;13.128;2022-09-09T04:50:34;4.60;;;2.30;;
5543;SDS011;2795;47.652;13.128;2022-09-09T04:53:04;8.63;;;2.63;;
5543;SDS011;2795;47.652;13.128;2022-09-09T04:55:31;8.10;;;2.90;;
5543;SDS011;2795;47.652;13.128;2022-09-09T04:58:02;32.57;;;5.33;;
5543;SDS011;2795;47.652;13.128;2022-09-09T05:00:30;14.73;;;3.20;;
5543;SDS011;2795;47.652;13.128;2022-09-09T05:02:57;6.60;;;2.30;;
5543;SDS011;2795;47.652;13.128;2022-09-09T05:05:23;5.17;;;2.10;;
5543;SDS011;2795;47.652;13.128;2022-09-09T05:07:51;5.70;;;2.30;;
5543;SDS011;2795;47.652;13.128;2022-09-09T05:10:18;9.90;;;2.53;;
5543;SDS011;2795;47.652;13.128;2022-09-09T05:12:51;10.17;;;2.70;;
5543;SDS011;2795;47.652;13.128;2022-09-09T05:15:19;8.67;;;2.67;;
5543;SDS011;2795;47.652;13.128;2022-09-09T05:17:46;16.83;;;3.57;;
5543;SDS011;2795;47.652;13.128;2022-09-09T05:20:13;10.43;;;2.90;;
5543;SDS011;2795;47.652;13.128;2022-09-09T05:22:42;15.10;;;3.20;;
5543;SDS011;2795;47.652;13.128;2022-09-09T05:25:09;13.07;;;2.93;;
5543;SDS011;2795;47.652;13.128;2022-09-09T05:27:36;13.67;;;3.10;;
5543;SDS011;2795;47.652;13.128;2022-09-09T05:30:03;7.83;;;2.20;;
5543;SDS011;2795;47.652;13.128;2022-09-09T05:32:30;4.30;;;1.97;;
5543;SDS011;2795;47.652;13.128;2022-09-09T05:34:59;5.87;;;2.40;;
5543;SDS011;2795;47.652;13.128;2022-09-09T05:37:25;6.47;;;2.30;;
5543;SDS011;2795;47.652;13.128;2022-09-09T05:39:52;10.20;;;2.67;;
5543;SDS011;2795;47.652;13.128;2022-09-09T05:42:19;6.70;;;2.50;;
5543;SDS011;2795;47.652;13.128;2022-09-09T05:44:46;12.40;;;2.93;;
5543;SDS011;2795;47.652;13.128;2022-09-09T05:47:12;10.67;;;2.90;;
5543;SDS011;2795;47.652;13.128;2022-09-09T05:49:41;8.50;;;2.50;;
5543;SDS011;2795;47.652;13.128;2022-09-09T05:52:08;11.47;;;2.60;;
5543;SDS011;2795;47.652;13.128;2022-09-09T05:54:36;7.40;;;2.53;;
5543;SDS011;2795;47.652;13.128;2022-09-09T05:57:03;6.70;;;2.50;;
5543;SDS011;2795;47.652;13.128;2022-09-09T05:59:30;4.23;;;2.13;;
5543;SDS011;2795;47.652;13.128;2022-09-09T06:01:58;6.57;;;2.53;;
5543;SDS011;2795;47.652;13.128;2022-09-09T06:04:25;5.90;;;2.43;;
5543;SDS011;2795;47.652;13.128;2022-09-09T06:06:52;7.43;;;2.30;;
5543;SDS011;2795;47.652;13.128;2022-09-09T06:09:19;9.93;;;2.43;;
5543;SDS011;2795;47.652;13.128;2022-09-09T06:11:45;5.30;;;2.10;;
5543;SDS011;2795;47.652;13.128;2022-09-09T06:14:11;9.30;;;2.60;;
5543;SDS011;2795;47.652;13.128;2022-09-09T06:16:38;6.77;;;2.60;;
5543;SDS011;2795;47.652;13.128;2022-09-09T06:19:05;7.87;;;2.30;;
5543;SDS011;2795;47.652;13.128;2022-09-09T06:21:33;8.80;;;2.60;;
5543;SDS011;2795;47.652;13.128;2022-09-09T06:24:03;10.40;;;2.63;;
5543;SDS011;2795;47.652;13.128;2022-09-09T06:26:33;8.63;;;2.63;;
5543;SDS011;2795;47.652;13.128;2022-09-09T06:29:02;6.53;;;2.70;;
5543;SDS011;2795;47.652;13.128;2022-09-09T06:31:31;10.77;;;2.90;;
5543;SDS011;2795;47.652;13.128;2022-09-09T06:34:00;6.70;;;2.47;;
5543;SDS011;2795;47.652;13.128;2022-09-09T06:36:29;11.00;;;2.47;;
5543;SDS011;2795;47.652;13.128;2022-09-09T06:39:03;6.90;;;2.20;;
5543;SDS011;2795;47.652;13.128;2022-09-09T06:41:31;10.03;;;2.80;;
5543;SDS011;2795;47.652;13.128;2022-09-09T06:43:59;13.77;;;3.03;;
5543;SDS011;2795;47.652;13.128;2022-09-09T06:46:26;12.63;;;3.73;;
5543;SDS011;2795;47.652;13.128;2022-09-09T06:48:54;7.87;;;2.50;;
5543;SDS011;2795;47.652;13.128;2022-09-09T06:51:29;9.53;;;2.70;;
5543;SDS011;2795;47.652;13.128;2022-09-09T06:53:58;8.40;;;2.63;;
5543;SDS011;2795;47.652;13.128;2022-09-09T06:56:26;8.50;;;2.50;;
5543;SDS011;2795;47.652;13.128;2022-09-09T06:58:57;15.27;;;3.33;;
5543;SDS011;2795;47.652;13.128;2022-09-09T07:01:28;6.60;;;2.43;;
5543;SDS011;2795;47.652;13.128;2022-09-09T07:03:56;15.37;;;3.03;;
5543;SDS011;2795;47.652;13.128;2022-09-09T07:06:29;6.20;;;2.13;;
5543;SDS011;2795;47.652;13.128;2022-09-09T07:08:57;13.43;;;2.40;;
5543;SDS011;2795;47.652;13.128;2022-09-09T07:11:26;9.10;;;2.83;;
5543;SDS011;2795;47.652;13.128;2022-09-09T07:13:55;5.60;;;2.20;;
5543;SDS011;2795;47.652;13.128;2022-09-09T07:16:23;10.83;;;2.70;;
5543;SDS011;2795;47.652;13.128;2022-09-09T07:18:53;17.00;;;3.50;;
5543;SDS011;2795;47.652;13.128;2022-09-09T07:21:29;10.80;;;2.90;;
5543;SDS011;2795;47.652;13.128;2022-09-09T07:23:57;10.67;;;2.93;;
5543;SDS011;2795;47.652;13.128;2022-09-09T07:26:24;12.17;;;3.07;;
5543;SDS011;2795;47.652;13.128;2022-09-09T07:28:52;12.07;;;2.87;;
5543;SDS011;2795;47.652;13.128;2022-09-09T07:31:23;7.10;;;2.53;;
5543;SDS011;2795;47.652;13.128;2022-09-09T07:33:57;8.53;;;2.50;;
5543;SDS011;2795;47.652;13.128;2022-09-09T07:36:27;7.50;;;2.40;;
5543;SDS011;2795;47.652;13.128;2022-09-09T07:38:59;6.23;;;2.27;;
5543;SDS011;2795;47.652;13.128;2022-09-09T07:41:37;7.20;;;2.30;;
5543;SDS011;2795;47.652;13.128;2022-09-09T07:44:10;10.33;;;3.00;;
5543;SDS011;2795;47.652;13.128;2022-09-09T07:46:37;6.50;;;2.23;;
5543;SDS011;2795;47.652;13.128;2022-09-09T07:49:06;6.87;;;2.30;;
5543;SDS011;2795;47.652;13.128;2022-09-09T07:51:34;11.73;;;2.70;;
5543;SDS011;2795;47.652;13.128;2022-09-09T07:54:04;14.80;;;3.37;;
5543;SDS011;2795;47.652;13.128;2022-09-09T07:56:32;6.43;;;2.60;;
5543;SDS011;2795;47.652;13.128;2022-09-09T07:59:02;8.60;;;2.83;;
5543;SDS011;2795;47.652;13.128;2022-09-09T08:01:31;9.17;;;2.70;;
5543;SDS011;2795;47.652;13.128;2022-09-09T08:04:01;6.70;;;2.60;;
5543;SDS011;2795;47.652;13.128;2022-09-09T08:06:30;12.47;;;2.87;;
5543;SDS011;2795;47.652;13.128;2022-09-09T08:09:00;8.20;;;2.77;;
5543;SDS011;2795;47.652;13.128;2022-09-09T08:11:28;8.97;;;2.90;;
5543;SDS011;2795;47.652;13.128;2022-09-09T08:13:59;14.23;;;3.70;;
5543;SDS011;2795;47.652;13.128;2022-09-09T08:16:28;15.13;;;3.50;;
5543;SDS011;2795;47.652;13.128;2022-09-09T08:18:57;13.50;;;3.47;;
5543;SDS011;2795;47.652;13.128;2022-09-09T08:21:25;12.30;;;3.07;;
5543;SDS011;2795;47.652;13.128;2022-09-09T08:23:54;10.53;;;2.97;;
5543;SDS011;2795;47.652;13.128;2022-09-09T08:26:27;13.17;;;3.20;;
5543;SDS011;2795;47.652;13.128;2022-09-09T08:28:56;9.27;;;2.90;;
5543;SDS011;2795;47.652;13.128;2022-09-09T08:31:28;12.87;;;3.03;;
5543;SDS011;2795;47.652;13.128;2022-09-09T08:34:00;6.30;;;2.60;;
5543;SDS011;2795;47.652;13.128;2022-09-09T08:36:29;8.73;;;2.60;;
5543;SDS011;2795;47.652;13.128;2022-09-09T08:38:59;5.03;;;2.87;;
5543;SDS011;2795;47.652;13.128;2022-09-09T08:47:03;12.30;;;3.40;;
5543;SDS011;2795;47.652;13.128;2022-09-09T08:52:17;22.17;;;4.40;;
5543;SDS011;2795;47.652;13.128;2022-09-09T08:54:46;12.00;;;3.17;;
5543;SDS011;2795;47.652;13.128;2022-09-09T08:57:19;12.67;;;3.17;;
5543;SDS011;2795;47.652;13.128;2022-09-09T08:59:49;11.60;;;3.00;;
5543;SDS011;2795;47.652;13.128;2022-09-09T09:02:27;18.97;;;3.73;;
5543;SDS011;2795;47.652;13.128;2022-09-09T09:13:15;17.13;;;4.30;;
5543;SDS011;2795;47.652;13.128;2022-09-09T09:15:48;15.73;;;3.77;;
5543;SDS011;2795;47.652;13.128;2022-09-09T09:18:19;10.90;;;3.10;;
5543;SDS011;2795;47.652;13.128;2022-09-09T09:20:50;12.73;;;2.90;;
5543;SDS011;2795;47.652;13.128;2022-09-09T09:23:25;9.20;;;2.93;;
5543;SDS011;2795;47.652;13.128;2022-09-09T09:26:01;8.77;;;2.83;;
5543;SDS011;2795;47.652;13.128;2022-09-09T09:28:31;6.80;;;2.63;;
5543;SDS011;2795;47.652;13.128;2022-09-09T09:31:06;13.60;;;3.03;;
5543;SDS011;2795;47.652;13.128;2022-09-09T09:36:07;7.63;;;2.50;;
5543;SDS011;2795;47.652;13.128;2022-09-09T09:38:35;5.50;;;2.17;;
5543;SDS011;2795;47.652;13.128;2022-09-09T09:44:03;10.87;;;3.07;;
5543;SDS011;2795;47.652;13.128;2022-09-09T09:46:31;7.60;;;2.27;;
5543;SDS011;2795;47.652;13.128;2022-09-09T09:49:01;8.30;;;2.50;;
5543;SDS011;2795;47.652;13.128;2022-09-09T09:51:29;8.53;;;2.80;;
5543;SDS011;2795;47.652;13.128;2022-09-09T09:54:31;12.20;;;3.30;;
5543;SDS011;2795;47.652;13.128;2022-09-09T09:56:53;11.43;;;2.90;;
5543;SDS011;2795;47.652;13.128;2022-09-09T10:02:11;16.23;;;3.23;;
5543;SDS011;2795;47.652;13.128;2022-09-09T10:04:39;14.53;;;3.73;;
5543;SDS011;2795;47.652;13.128;2022-09-09T10:07:11;15.67;;;3.80;;
5543;SDS011;2795;47.652;13.128;2022-09-09T10:09:38;7.70;;;2.70;;
5543;SDS011;2795;47.652;13.128;2022-09-09T10:13:11;15.93;;;2.73;;
5543;SDS011;2795;47.652;13.128;2022-09-09T10:27:05;11.27;;;3.27;;
5543;SDS011;2795;47.652;13.128;2022-09-09T10:29:47;14.63;;;3.73;;
5543;SDS011;2795;47.652;13.128;2022-09-09T10:35:12;17.90;;;3.70;;
5543;SDS011;2795;47.652;13.128;2022-09-09T10:37:59;14.83;;;3.57;;
5543;SDS011;2795;47.652;13.128;2022-09-09T10:50:56;13.50;;;3.30;;
5543;SDS011;2795;47.652;13.128;2022-09-09T10:53:48;14.70;;;3.57;;
5543;SDS011;2795;47.652;13.128;2022-09-09T10:56:20;8.67;;;2.60;;
5543;SDS011;2795;47.652;13.128;2022-09-09T11:01:29;12.40;;;3.20;;
5543;SDS011;2795;47.652;13.128;2022-09-09T11:04:04;11.23;;;3.03;;
5543;SDS011;2795;47.652;13.128;2022-09-09T11:06:35;6.00;;;2.30;;
5543;SDS011;2795;47.652;13.128;2022-09-09T11:09:05;17.03;;;3.87;;
5543;SDS011;2795;47.652;13.128;2022-09-09T11:11:42;7.20;;;2.80;;
5543;SDS011;2795;47.652;13.128;2022-09-09T11:14:19;10.83;;;3.30;;
5543;SDS011;2795;47.652;13.128;2022-09-09T11:16:59;15.00;;;3.83;;
5543;SDS011;2795;47.652;13.128;2022-09-09T11:19:34;9.60;;;3.20;;
5543;SDS011;2795;47.652;13.128;2022-09-09T11:22:02;7.20;;;2.80;;
5543;SDS011;2795;47.652;13.128;2022-09-09T11:24:44;7.20;;;2.73;;
5543;SDS011;2795;47.652;13.128;2022-09-09T11:27:25;11.53;;;3.67;;
5543;SDS011;2795;47.652;13.128;2022-09-09T11:36:11;7.73;;;2.50;;
5543;SDS011;2795;47.652;13.128;2022-09-09T11:39:02;14.17;;;3.60;;
5543;SDS011;2795;47.652;13.128;2022-09-09T11:41:36;7.73;;;2.97;;
5543;SDS011;2795;47.652;13.128;2022-09-09T11:44:13;8.07;;;2.60;;
5543;SDS011;2795;47.652;13.128;2022-09-09T11:46:49;16.20;;;3.50;;
5543;SDS011;2795;47.652;13.128;2022-09-09T11:49:25;15.80;;;3.73;;
5543;SDS011;2795;47.652;13.128;2022-09-09T11:51:58;11.33;;;2.97;;
5543;SDS011;2795;47.652;13.128;2022-09-09T11:54:32;15.13;;;3.53;;
5543;SDS011;2795;47.652;13.128;2022-09-09T11:57:02;9.50;;;2.90;;
5543;SDS011;2795;47.652;13.128;2022-09-09T11:59:31;9.90;;;3.03;;
5543;SDS011;2795;47.652;13.128;2022-09-09T12:04:47;15.33;;;3.80;;
5543;SDS011;2795;47.652;13.128;2022-09-09T12:07:35;17.63;;;3.37;;
5543;SDS011;2795;47.652;13.128;2022-09-09T12:12:35;8.80;;;3.23;;
5543;SDS011;2795;47.652;13.128;2022-09-09T12:17:46;8.00;;;3.80;;
5543;SDS011;2795;47.652;13.128;2022-09-09T12:20:14;10.63;;;4.70;;
5543;SDS011;2795;47.652;13.128;2022-09-09T12:25:28;19.10;;;5.07;;
5543;SDS011;2795;47.652;13.128;2022-09-09T12:28:18;10.57;;;3.70;;
5543;SDS011;2795;47.652;13.128;2022-09-09T12:33:22;11.50;;;3.67;;
5543;SDS011;2795;47.652;13.128;2022-09-09T12:35:51;12.00;;;3.97;;
5543;SDS011;2795;47.652;13.128;2022-09-09T12:38:32;19.67;;;4.73;;
5543;SDS011;2795;47.652;13.128;2022-09-09T12:41:00;16.67;;;4.20;;
5543;SDS011;2795;47.652;13.128;2022-09-09T12:43:27;11.00;;;3.67;;
5543;SDS011;2795;47.652;13.128;2022-09-09T12:46:04;13.67;;;3.60;;
5543;SDS011;2795;47.652;13.128;2022-09-09T12:48:38;7.60;;;3.60;;
5543;SDS011;2795;47.652;13.128;2022-09-09T12:51:18;8.80;;;2.83;;
5543;SDS011;2795;47.652;13.128;2022-09-09T12:53:47;13.43;;;3.33;;
5543;SDS011;2795;47.652;13.128;2022-09-09T12:56:21;10.13;;;3.20;;
5543;SDS011;2795;47.652;13.128;2022-09-09T12:58:50;9.13;;;3.20;;
5543;SDS011;2795;47.652;13.128;2022-09-09T13:01:22;16.33;;;3.70;;
5543;SDS011;2795;47.652;13.128;2022-09-09T13:03:51;17.87;;;4.23;;
5543;SDS011;2795;47.652;13.128;2022-09-09T13:06:22;14.13;;;4.00;;
5543;SDS011;2795;47.652;13.128;2022-09-09T13:08:55;14.93;;;3.80;;
5543;SDS011;2795;47.652;13.128;2022-09-09T13:11:30;13.50;;;3.93;;
5543;SDS011;2795;47.652;13.128;2022-09-09T13:14:01;10.53;;;3.33;;
5543;SDS011;2795;47.652;13.128;2022-09-09T13:16:29;8.00;;;2.87;;
5543;SDS011;2795;47.652;13.128;2022-09-09T13:19:08;7.70;;;3.13;;
5543;SDS011;2795;47.652;13.128;2022-09-09T13:21:37;10.07;;;3.00;;
5543;SDS011;2795;47.652;13.128;2022-09-09T13:24:05;8.93;;;2.90;;
5543;SDS011;2795;47.652;13.128;2022-09-09T13:26:34;8.07;;;3.10;;
5543;SDS011;2795;47.652;13.128;2022-09-09T13:29:34;10.93;;;3.50;;
5543;SDS011;2795;47.652;13.128;2022-09-09T13:31:54;10.10;;;3.00;;
5543;SDS011;2795;47.652;13.128;2022-09-09T13:34:31;13.27;;;3.63;;
5543;SDS011;2795;47.652;13.128;2022-09-09T13:36:59;11.07;;;3.53;;
5543;SDS011;2795;47.652;13.128;2022-09-09T13:39:32;6.57;;;2.77;;
5543;SDS011;2795;47.652;13.128;2022-09-09T13:42:00;21.13;;;3.50;;
5543;SDS011;2795;47.652;13.128;2022-09-09T13:44:27;11.50;;;3.43;;
5543;SDS011;2795;47.652;13.128;2022-09-09T13:47:15;11.17;;;3.37;;
5543;SDS011;2795;47.652;13.128;2022-09-09T13:49:45;13.70;;;3.67;;
5543;SDS011;2795;47.652;13.128;2022-09-09T13:52:13;10.10;;;2.93;;
5543;SDS011;2795;47.652;13.128;2022-09-09T13:54:40;10.93;;;2.97;;
5543;SDS011;2795;47.652;13.128;2022-09-09T13:57:17;10.10;;;2.83;;
5543;SDS011;2795;47.652;13.128;2022-09-09T13:59:52;10.53;;;3.17;;
5543;SDS011;2795;47.652;13.128;2022-09-09T14:02:36;10.77;;;3.20;;
5543;SDS011;2795;47.652;13.128;2022-09-09T14:05:04;13.07;;;3.50;;
5543;SDS011;2795;47.652;13.128;2022-09-09T14:07:32;14.07;;;3.33;;
5543;SDS011;2795;47.652;13.128;2022-09-09T14:09:59;10.73;;;2.90;;
5543;SDS011;2795;47.652;13.128;2022-09-09T14:12:26;10.80;;;2.63;;
5543;SDS011;2795;47.652;13.128;2022-09-09T14:14:53;13.10;;;3.40;;
5543;SDS011;2795;47.652;13.128;2022-09-09T14:17:19;15.63;;;5.03;;
5543;SDS011;2795;47.652;13.128;2022-09-09T14:19:46;26.50;;;12.00;;
5543;SDS011;2795;47.652;13.128;2022-09-09T14:22:12;15.30;;;6.40;;
5543;SDS011;2795;47.652;13.128;2022-09-09T14:24:39;11.77;;;4.27;;
5543;SDS011;2795;47.652;13.128;2022-09-09T14:27:06;10.90;;;4.50;;
5543;SDS011;2795;47.652;13.128;2022-09-09T14:29:33;17.47;;;5.83;;
5543;SDS011;2795;47.652;13.128;2022-09-09T14:32:00;17.77;;;4.57;;
5543;SDS011;2795;47.652;13.128;2022-09-09T14:34:27;12.27;;;3.77;;
5543;SDS011;2795;47.652;13.128;2022-09-09T14:36:53;13.90;;;3.30;;
5543;SDS011;2795;47.652;13.128;2022-09-09T14:39:20;20.00;;;4.70;;
5543;SDS011;2795;47.652;13.128;2022-09-09T14:41:46;8.73;;;3.30;;
5543;SDS011;2795;47.652;13.128;2022-09-09T14:44:13;11.20;;;3.17;;
5543;SDS011;2795;47.652;13.128;2022-09-09T14:46:39;16.83;;;4.37;;
5543;SDS011;2795;47.652;13.128;2022-09-09T14:49:08;13.50;;;5.23;;
5543;SDS011;2795;47.652;13.128;2022-09-09T14:51:37;13.63;;;4.70;;
5543;SDS011;2795;47.652;13.128;2022-09-09T14:54:04;21.10;;;4.83;;
5543;SDS011;2795;47.652;13.128;2022-09-09T14:56:32;15.43;;;5.00;;
5543;SDS011;2795;47.652;13.128;2022-09-09T14:59:00;14.00;;;5.27;;
5543;SDS011;2795;47.652;13.128;2022-09-09T15:01:28;14.80;;;4.90;;
5543;SDS011;2795;47.652;13.128;2022-09-09T15:04:00;12.57;;;4.20;;
5543;SDS011;2795;47.652;13.128;2022-09-09T15:06:28;18.50;;;5.53;;
5543;SDS011;2795;47.652;13.128;2022-09-09T15:08:59;17.93;;;5.67;;
5543;SDS011;2795;47.652;13.128;2022-09-09T15:11:27;14.13;;;4.67;;
5543;SDS011;2795;47.652;13.128;2022-09-09T15:13:54;15.50;;;5.37;;
5543;SDS011;2795;47.652;13.128;2022-09-09T15:16:21;18.33;;;5.60;;
5543;SDS011;2795;47.652;13.128;2022-09-09T15:18:50;12.57;;;4.27;;
5543;SDS011;2795;47.652;13.128;2022-09-09T15:21:20;21.10;;;5.20;;
5543;SDS011;2795;47.652;13.128;2022-09-09T15:23:48;21.30;;;5.40;;
5543;SDS011;2795;47.652;13.128;2022-09-09T15:26:15;9.43;;;4.00;;
5543;SDS011;2795;47.652;13.128;2022-09-09T15:28:43;11.53;;;4.00;;
5543;SDS011;2795;47.652;13.128;2022-09-09T15:31:11;7.17;;;3.07;;
5543;SDS011;2795;47.652;13.128;2022-09-09T15:33:49;9.30;;;3.60;;
5543;SDS011;2795;47.652;13.128;2022-09-09T15:36:18;12.23;;;4.17;;
5543;SDS011;2795;47.652;13.128;2022-09-09T15:38:50;8.13;;;3.57;;
5543;SDS011;2795;47.652;13.128;2022-09-09T15:41:18;7.70;;;3.50;;
5543;SDS011;2795;47.652;13.128;2022-09-09T15:43:46;12.40;;;3.70;;
5543;SDS011;2795;47.652;13.128;2022-09-09T15:48:58;12.23;;;3.40;;
5543;SDS011;2795;47.652;13.128;2022-09-09T15:51:35;11.90;;;3.87;;
5543;SDS011;2795;47.652;13.128;2022-09-09T15:54:14;8.77;;;3.53;;
5543;SDS011;2795;47.652;13.128;2022-09-09T15:56:43;8.97;;;3.63;;
5543;SDS011;2795;47.652;13.128;2022-09-09T15:59:11;9.70;;;3.50;;
5543;SDS011;2795;47.652;13.128;2022-09-09T16:01:38;8.70;;;3.30;;
5543;SDS011;2795;47.652;13.128;2022-09-09T16:04:08;13.00;;;3.77;;
5543;SDS011;2795;47.652;13.128;2022-09-09T16:06:35;9.70;;;3.90;;
5543;SDS011;2795;47.652;13.128;2022-09-09T16:09:02;11.23;;;4.00;;
5543;SDS011;2795;47.652;13.128;2022-09-09T16:11:31;10.80;;;4.03;;
5543;SDS011;2795;47.652;13.128;2022-09-09T16:13:59;14.20;;;4.83;;
5543;SDS011;2795;47.652;13.128;2022-09-09T16:16:27;13.23;;;4.80;;
5543;SDS011;2795;47.652;13.128;2022-09-09T16:18:55;17.13;;;4.33;;
5543;SDS011;2795;47.652;13.128;2022-09-09T16:21:31;7.40;;;3.23;;
5543;SDS011;2795;47.652;13.128;2022-09-09T16:24:04;12.27;;;3.77;;
5543;SDS011;2795;47.652;13.128;2022-09-09T16:26:34;10.40;;;4.03;;
5543;SDS011;2795;47.652;13.128;2022-09-09T16:29:01;25.07;;;4.90;;
5543;SDS011;2795;47.652;13.128;2022-09-09T16:31:29;12.47;;;3.63;;
5543;SDS011;2795;47.652;13.128;2022-09-09T16:33:58;11.50;;;3.80;;
5543;SDS011;2795;47.652;13.128;2022-09-09T16:36:26;9.63;;;3.57;;
5543;SDS011;2795;47.652;13.128;2022-09-09T16:38:54;7.07;;;3.33;;
5543;SDS011;2795;47.652;13.128;2022-09-09T16:41:23;16.60;;;4.27;;
5543;SDS011;2795;47.652;13.128;2022-09-09T16:43:53;9.90;;;3.17;;
5543;SDS011;2795;47.652;13.128;2022-09-09T16:46:21;8.13;;;2.90;;
5543;SDS011;2795;47.652;13.128;2022-09-09T16:48:50;6.87;;;2.93;;
5543;SDS011;2795;47.652;13.128;2022-09-09T16:51:21;8.50;;;3.27;;
5543;SDS011;2795;47.652;13.128;2022-09-09T16:53:52;20.43;;;4.50;;
5543;SDS011;2795;47.652;13.128;2022-09-09T16:56:21;10.63;;;3.30;;
5543;SDS011;2795;47.652;13.128;2022-09-09T16:58:51;13.77;;;4.10;;
5543;SDS011;2795;47.652;13.128;2022-09-09T17:01:25;6.30;;;3.27;;
5543;SDS011;2795;47.652;13.128;2022-09-09T17:03:53;16.37;;;4.10;;
5543;SDS011;2795;47.652;13.128;2022-09-09T17:06:27;12.67;;;3.80;;
5543;SDS011;2795;47.652;13.128;2022-09-09T17:08:59;12.27;;;3.67;;
5543;SDS011;2795;47.652;13.128;2022-09-09T17:11:27;9.90;;;3.47;;
5543;SDS011;2795;47.652;13.128;2022-09-09T17:13:57;15.03;;;3.50;;